الكل
K. D. Matanzima Airport (Umtata) UTT حالة الطقس
|
Umtata (UTT / FAUT)
سماء صافية
رياح خفيفة |
|
13 °C |
توقع منطقة محطة المطارUTT
| Date | Time (SAST) | Flight Rules | Wind Dir. | Speed | Type | Height AGL (ft) | Visibility | Remarks | ||||||
|---|---|---|---|---|---|---|---|---|---|---|---|---|---|---|
محفوظات أحدث تقرير روتيني عن حالة الطقس من أجل الطيران (الميتار )UTT
| Date | Time (SAST) | Flight Rules | Wind Dir. | Speed | Type | Height AGL (ft) | Visibility | Temp (°C) | Temp (°F) | Dew Point (°C) | Dew Point (°F) | Rel. Humid. | Pressure | Density Altitude | Remarks |
|---|---|---|---|---|---|---|---|---|---|---|---|---|---|---|---|
| 02-سبت | 03:00 | n/a | 190° | 7 kt | Missing | 13° | 55° | 12° | 53° | 94% | 1019 mb | 2,464 ft | |||
| 02-سبت | 02:00 | n/a | 270° | 3 kt | Missing | 13° | 55° | 13° | 55° | 100% | 1018 mb | 2,494 ft | |||
| 02-سبت | 01:00 | n/a | 350° | 4 kt | Missing | 14° | 57° | 13° | 55° | 94% | 1019 mb | 2,584 ft | |||
| 02-سبت | 00:00 | n/a | 310° | 2 kt | Missing | 15° | 59° | 14° | 57° | 94% | 1020 mb | 2,675 ft | |||
| 01-سبت | 23:00 | n/a | 270° | 5 kt | Missing | 16° | 60° | 13° | 55° | 82% | 1021 mb | 2,765 ft | |||
| 01-سبت | 22:00 | n/a | 210° | 5 kt | Missing | 16° | 60° | 15° | 59° | 94% | 1020 mb | 2,795 ft | |||
| 01-سبت | 21:00 | n/a | 210° | 2 kt | Missing | 16° | 60° | 15° | 59° | 94% | 1020 mb | 2,795 ft | |||
| 01-سبت | 20:00 | n/a | 180° | 3 kt | Missing | 17° | 62° | 15° | 59° | 88% | 1019 mb | 2,944 ft | |||
| 01-سبت | 19:00 | n/a | 230° | 2 kt | Missing | 17° | 62° | 15° | 59° | 88% | 1019 mb | 2,944 ft | |||
| 01-سبت | 18:00 | n/a | 150° | 4 kt | Missing | 20° | 68° | 16° | 60° | 78% | 1018 mb | 3,334 ft | |||
| 01-سبت | 17:00 | n/a | 170° | 5 kt | Missing | 23° | 73° | 16° | 60° | 65% | 1018 mb | 3,694 ft | |||
| 01-سبت | 16:00 | n/a | 150° | 6 kt | Missing | 24° | 75° | 15° | 59° | 57% | 1018 mb | 3,814 ft | |||
| 01-سبت | 15:00 | n/a | 150° | 6 kt | Missing | 25° | 77° | 15° | 59° | 54% | 1018 mb | 3,934 ft | |||
| 01-سبت | 14:00 | n/a | 140° | 7 kt | Missing | 26° | 78° | 14° | 57° | 48% | 1019 mb | 4,024 ft | |||
| 01-سبت | 13:00 | n/a | 150° | 6 kt | Missing | 26° | 78° | 13° | 55° | 45% | 1020 mb | 3,995 ft | |||
| 01-سبت | 12:00 | n/a | 150° | 6 kt | Missing | 25° | 77° | 11° | 51° | 41% | 1021 mb | 3,845 ft | |||
| 01-سبت | 11:00 | n/a | 110° | 1 kt | Missing | 22° | 71° | 14° | 57° | 60% | 1021 mb | 3,485 ft | |||
| 01-سبت | 10:00 | n/a | 70° | 3 kt | Missing | 19° | 66° | 14° | 57° | 73% | 1022 mb | 3,096 ft | |||
| 01-سبت | 09:00 | n/a | 220° | 1 kt | Missing | 13° | 55° | 13° | 55° | 100% | 1022 mb | 2,376 ft | |||
| 01-سبت | 08:00 | n/a | 350° | 2 kt | Missing | 12° | 53° | 12° | 53° | 100% | 1022 mb | 2,256 ft | |||
| 01-سبت | 07:00 | n/a | 10° | 2 kt | Missing | 12° | 53° | 12° | 53° | 100% | 1022 mb | 2,256 ft | |||
| 01-سبت | 06:00 | n/a | 330° | 4 kt | Missing | 13° | 55° | 12° | 53° | 94% | 1021 mb | 2,405 ft | |||
| 01-سبت | 05:00 | n/a | 350° | 1 kt | Missing | 12° | 53° | 12° | 53° | 100% | 1021 mb | 2,285 ft | |||
| 01-سبت | 04:00 | n/a | 190° | 1 kt | Missing | 12° | 53° | 11° | 51° | 94% | 1021 mb | 2,285 ft |
تسجيل الدخول
| مُتصفحك غير مُدعَّم. قم بترقية متصفحك |
